sensor_id;sensor_type;location;lat;lon;timestamp;temperature;humidity
17697;DHT22;8967;47.984;7.842;2023-03-21T00:02:15;9.40;99.90
17697;DHT22;8967;47.984;7.842;2023-03-21T00:04:42;9.40;99.90
17697;DHT22;8967;47.984;7.842;2023-03-21T00:07:09;9.40;99.90
17697;DHT22;8967;47.984;7.842;2023-03-21T00:09:39;9.40;99.90
17697;DHT22;8967;47.984;7.842;2023-03-21T00:12:06;9.40;99.90
17697;DHT22;8967;47.984;7.842;2023-03-21T00:14:34;9.40;99.90
17697;DHT22;8967;47.984;7.842;2023-03-21T00:17:03;9.40;99.90
17697;DHT22;8967;47.984;7.842;2023-03-21T00:19:29;9.30;99.90
17697;DHT22;8967;47.984;7.842;2023-03-21T00:21:57;9.30;99.90
17697;DHT22;8967;47.984;7.842;2023-03-21T00:24:24;9.30;99.90
17697;DHT22;8967;47.984;7.842;2023-03-21T00:26:52;9.20;99.90
17697;DHT22;8967;47.984;7.842;2023-03-21T00:29:19;9.10;99.90
17697;DHT22;8967;47.984;7.842;2023-03-21T00:31:46;9.10;99.90
17697;DHT22;8967;47.984;7.842;2023-03-21T00:34:13;9.10;99.90
17697;DHT22;8967;47.984;7.842;2023-03-21T00:36:42;9.10;99.90
17697;DHT22;8967;47.984;7.842;2023-03-21T00:39:09;9.00;99.90
17697;DHT22;8967;47.984;7.842;2023-03-21T00:41:38;9.00;99.90
17697;DHT22;8967;47.984;7.842;2023-03-21T00:44:07;8.90;99.90
17697;DHT22;8967;47.984;7.842;2023-03-21T00:46:34;8.90;99.90
17697;DHT22;8967;47.984;7.842;2023-03-21T00:49:01;8.80;99.90
17697;DHT22;8967;47.984;7.842;2023-03-21T00:51:28;8.80;99.90
17697;DHT22;8967;47.984;7.842;2023-03-21T00:53:56;8.80;99.90
17697;DHT22;8967;47.984;7.842;2023-03-21T00:56:26;8.80;99.90
17697;DHT22;8967;47.984;7.842;2023-03-21T00:58:53;8.80;99.90
17697;DHT22;8967;47.984;7.842;2023-03-21T01:01:21;8.80;99.90
17697;DHT22;8967;47.984;7.842;2023-03-21T01:03:48;8.80;99.90
17697;DHT22;8967;47.984;7.842;2023-03-21T01:06:31;8.70;99.90
17697;DHT22;8967;47.984;7.842;2023-03-21T01:09:01;8.70;99.90
17697;DHT22;8967;47.984;7.842;2023-03-21T01:11:28;8.60;99.90
17697;DHT22;8967;47.984;7.842;2023-03-21T01:13:55;8.60;99.90
17697;DHT22;8967;47.984;7.842;2023-03-21T01:16:24;8.60;99.90
17697;DHT22;8967;47.984;7.842;2023-03-21T01:18:51;8.60;99.90
17697;DHT22;8967;47.984;7.842;2023-03-21T01:21:19;8.60;99.90
17697;DHT22;8967;47.984;7.842;2023-03-21T01:23:46;8.60;99.90
17697;DHT22;8967;47.984;7.842;2023-03-21T01:26:15;8.50;99.90
17697;DHT22;8967;47.984;7.842;2023-03-21T01:28:44;8.50;99.90
17697;DHT22;8967;47.984;7.842;2023-03-21T01:31:13;8.50;99.90
17697;DHT22;8967;47.984;7.842;2023-03-21T01:33:42;8.50;99.90
17697;DHT22;8967;47.984;7.842;2023-03-21T01:36:14;8.50;99.90
17697;DHT22;8967;47.984;7.842;2023-03-21T01:38:41;8.50;99.90
17697;DHT22;8967;47.984;7.842;2023-03-21T01:41:17;8.50;99.90
17697;DHT22;8967;47.984;7.842;2023-03-21T01:43:46;8.50;99.90
17697;DHT22;8967;47.984;7.842;2023-03-21T01:49:27;8.40;99.90
17697;DHT22;8967;47.984;7.842;2023-03-21T01:52:10;8.40;99.90
17697;DHT22;8967;47.984;7.842;2023-03-21T01:54:40;8.40;99.90
17697;DHT22;8967;47.984;7.842;2023-03-21T01:57:10;8.30;99.90
17697;DHT22;8967;47.984;7.842;2023-03-21T01:59:42;8.30;99.90
17697;DHT22;8967;47.984;7.842;2023-03-21T02:02:20;8.30;99.90
17697;DHT22;8967;47.984;7.842;2023-03-21T02:05:09;8.30;99.90
17697;DHT22;8967;47.984;7.842;2023-03-21T02:07:36;8.30;99.90
17697;DHT22;8967;47.984;7.842;2023-03-21T02:10:10;8.20;99.90
17697;DHT22;8967;47.984;7.842;2023-03-21T02:12:41;8.20;99.90
17697;DHT22;8967;47.984;7.842;2023-03-21T02:15:10;8.20;99.90
17697;DHT22;8967;47.984;7.842;2023-03-21T02:17:57;8.20;99.90
17697;DHT22;8967;47.984;7.842;2023-03-21T02:21:00;8.20;99.90
17697;DHT22;8967;47.984;7.842;2023-03-21T02:24:04;8.10;99.90
17697;DHT22;8967;47.984;7.842;2023-03-21T02:26:58;8.10;99.90
17697;DHT22;8967;47.984;7.842;2023-03-21T02:36:00;8.10;99.90
17697;DHT22;8967;47.984;7.842;2023-03-21T02:38:36;8.10;99.90
17697;DHT22;8967;47.984;7.842;2023-03-21T02:41:15;8.00;99.90
17697;DHT22;8967;47.984;7.842;2023-03-21T02:43:51;8.00;99.90
17697;DHT22;8967;47.984;7.842;2023-03-21T02:46:25;8.00;99.90
17697;DHT22;8967;47.984;7.842;2023-03-21T02:49:01;8.00;99.90
17697;DHT22;8967;47.984;7.842;2023-03-21T02:51:30;8.00;99.90
17697;DHT22;8967;47.984;7.842;2023-03-21T02:54:01;7.90;99.90
17697;DHT22;8967;47.984;7.842;2023-03-21T02:56:34;7.90;99.90
17697;DHT22;8967;47.984;7.842;2023-03-21T02:59:03;7.90;99.90
17697;DHT22;8967;47.984;7.842;2023-03-21T03:01:31;7.80;99.90
17697;DHT22;8967;47.984;7.842;2023-03-21T03:04:00;7.80;99.90
17697;DHT22;8967;47.984;7.842;2023-03-21T03:06:38;7.80;99.90
17697;DHT22;8967;47.984;7.842;2023-03-21T03:09:20;7.80;99.90
17697;DHT22;8967;47.984;7.842;2023-03-21T03:11:55;7.80;99.90
17697;DHT22;8967;47.984;7.842;2023-03-21T03:14:42;7.80;99.90
17697;DHT22;8967;47.984;7.842;2023-03-21T03:17:19;7.80;99.90
17697;DHT22;8967;47.984;7.842;2023-03-21T03:19:57;7.70;99.90
17697;DHT22;8967;47.984;7.842;2023-03-21T03:22:35;7.70;99.90
17697;DHT22;8967;47.984;7.842;2023-03-21T03:25:07;7.70;99.90
17697;DHT22;8967;47.984;7.842;2023-03-21T03:27:40;7.70;99.90
17697;DHT22;8967;47.984;7.842;2023-03-21T03:30:12;7.70;99.90
17697;DHT22;8967;47.984;7.842;2023-03-21T03:32:43;7.70;99.90
17697;DHT22;8967;47.984;7.842;2023-03-21T03:35:13;7.70;99.90
17697;DHT22;8967;47.984;7.842;2023-03-21T03:37:41;7.60;99.90
17697;DHT22;8967;47.984;7.842;2023-03-21T03:40:14;7.60;99.90
17697;DHT22;8967;47.984;7.842;2023-03-21T03:42:52;7.60;99.90
17697;DHT22;8967;47.984;7.842;2023-03-21T03:45:30;7.70;99.90
17697;DHT22;8967;47.984;7.842;2023-03-21T03:48:05;7.70;99.90
17697;DHT22;8967;47.984;7.842;2023-03-21T03:50:39;7.70;99.90
17697;DHT22;8967;47.984;7.842;2023-03-21T03:53:16;7.60;99.90
17697;DHT22;8967;47.984;7.842;2023-03-21T03:55:50;7.60;99.90
17697;DHT22;8967;47.984;7.842;2023-03-21T03:58:21;7.70;99.90
17697;DHT22;8967;47.984;7.842;2023-03-21T04:00:48;7.60;99.90
17697;DHT22;8967;47.984;7.842;2023-03-21T04:03:15;7.60;99.90
17697;DHT22;8967;47.984;7.842;2023-03-21T04:05:43;7.60;99.90
17697;DHT22;8967;47.984;7.842;2023-03-21T04:08:15;7.60;99.90
17697;DHT22;8967;47.984;7.842;2023-03-21T04:10:46;7.60;99.90
17697;DHT22;8967;47.984;7.842;2023-03-21T04:13:14;7.60;99.90
17697;DHT22;8967;47.984;7.842;2023-03-21T04:15:47;7.70;99.90
17697;DHT22;8967;47.984;7.842;2023-03-21T04:18:15;7.70;99.90
17697;DHT22;8967;47.984;7.842;2023-03-21T04:20:43;7.70;99.90
17697;DHT22;8967;47.984;7.842;2023-03-21T04:23:10;7.70;99.90
17697;DHT22;8967;47.984;7.842;2023-03-21T04:25:42;7.70;99.90
17697;DHT22;8967;47.984;7.842;2023-03-21T04:28:09;7.70;99.90
17697;DHT22;8967;47.984;7.842;2023-03-21T04:30:52;7.70;99.90
17697;DHT22;8967;47.984;7.842;2023-03-21T04:33:22;7.70;99.90
17697;DHT22;8967;47.984;7.842;2023-03-21T04:35:54;7.70;99.90
17697;DHT22;8967;47.984;7.842;2023-03-21T04:38:25;7.70;99.90
17697;DHT22;8967;47.984;7.842;2023-03-21T04:40:56;7.70;99.90
17697;DHT22;8967;47.984;7.842;2023-03-21T04:43:23;7.60;99.90
17697;DHT22;8967;47.984;7.842;2023-03-21T04:45:51;7.60;99.90
17697;DHT22;8967;47.984;7.842;2023-03-21T04:48:19;7.60;99.90
17697;DHT22;8967;47.984;7.842;2023-03-21T04:50:50;7.60;99.90
17697;DHT22;8967;47.984;7.842;2023-03-21T04:53:17;7.60;99.90
17697;DHT22;8967;47.984;7.842;2023-03-21T04:55:45;7.50;99.90
17697;DHT22;8967;47.984;7.842;2023-03-21T04:58:11;7.50;99.90
17697;DHT22;8967;47.984;7.842;2023-03-21T05:00:40;7.50;99.90
17697;DHT22;8967;47.984;7.842;2023-03-21T05:03:09;7.50;99.90
17697;DHT22;8967;47.984;7.842;2023-03-21T05:05:44;7.40;99.90
17697;DHT22;8967;47.984;7.842;2023-03-21T05:08:15;7.40;99.90
17697;DHT22;8967;47.984;7.842;2023-03-21T05:10:42;7.40;99.90
17697;DHT22;8967;47.984;7.842;2023-03-21T05:13:09;7.50;99.90
17697;DHT22;8967;47.984;7.842;2023-03-21T05:15:36;7.50;99.90
17697;DHT22;8967;47.984;7.842;2023-03-21T05:18:03;7.40;99.90
17697;DHT22;8967;47.984;7.842;2023-03-21T05:20:40;7.40;99.90
17697;DHT22;8967;47.984;7.842;2023-03-21T05:23:08;7.40;99.90
17697;DHT22;8967;47.984;7.842;2023-03-21T05:25:37;7.30;99.90
17697;DHT22;8967;47.984;7.842;2023-03-21T05:28:13;7.30;99.90
17697;DHT22;8967;47.984;7.842;2023-03-21T05:30:43;7.40;99.90
17697;DHT22;8967;47.984;7.842;2023-03-21T05:33:10;7.40;99.90
17697;DHT22;8967;47.984;7.842;2023-03-21T05:35:39;7.40;99.90
17697;DHT22;8967;47.984;7.842;2023-03-21T05:38:09;7.40;99.90
17697;DHT22;8967;47.984;7.842;2023-03-21T05:40:47;7.40;99.90
17697;DHT22;8967;47.984;7.842;2023-03-21T05:43:17;7.40;99.90
17697;DHT22;8967;47.984;7.842;2023-03-21T05:45:45;7.40;99.90
17697;DHT22;8967;47.984;7.842;2023-03-21T05:48:14;7.40;99.90
17697;DHT22;8967;47.984;7.842;2023-03-21T05:51:20;7.40;99.90
17697;DHT22;8967;47.984;7.842;2023-03-21T05:53:47;7.30;99.90
17697;DHT22;8967;47.984;7.842;2023-03-21T05:56:15;7.30;99.90
17697;DHT22;8967;47.984;7.842;2023-03-21T05:58:50;7.30;99.90
17697;DHT22;8967;47.984;7.842;2023-03-21T06:01:21;7.40;99.90
17697;DHT22;8967;47.984;7.842;2023-03-21T06:03:57;7.50;99.90
17697;DHT22;8967;47.984;7.842;2023-03-21T06:06:28;7.60;99.90
17697;DHT22;8967;47.984;7.842;2023-03-21T06:08:58;7.70;99.90
17697;DHT22;8967;47.984;7.842;2023-03-21T06:11:28;7.70;99.90
17697;DHT22;8967;47.984;7.842;2023-03-21T06:14:28;7.80;99.90
17697;DHT22;8967;47.984;7.842;2023-03-21T06:17:11;7.90;99.90
17697;DHT22;8967;47.984;7.842;2023-03-21T06:19:45;7.90;99.90
17697;DHT22;8967;47.984;7.842;2023-03-21T06:22:25;8.00;99.90
17697;DHT22;8967;47.984;7.842;2023-03-21T06:24:52;8.00;99.90
17697;DHT22;8967;47.984;7.842;2023-03-21T06:27:19;8.10;99.90
17697;DHT22;8967;47.984;7.842;2023-03-21T06:29:50;8.10;99.90
17697;DHT22;8967;47.984;7.842;2023-03-21T06:32:20;8.10;99.90
17697;DHT22;8967;47.984;7.842;2023-03-21T06:34:52;8.20;99.90
17697;DHT22;8967;47.984;7.842;2023-03-21T06:37:19;8.20;99.90
17697;DHT22;8967;47.984;7.842;2023-03-21T06:39:48;8.20;99.90
17697;DHT22;8967;47.984;7.842;2023-03-21T06:42:16;8.30;99.90
17697;DHT22;8967;47.984;7.842;2023-03-21T06:44:42;8.30;99.90
17697;DHT22;8967;47.984;7.842;2023-03-21T06:47:13;8.30;99.90
17697;DHT22;8967;47.984;7.842;2023-03-21T06:49:42;8.30;99.90
17697;DHT22;8967;47.984;7.842;2023-03-21T06:52:12;8.40;99.90
17697;DHT22;8967;47.984;7.842;2023-03-21T06:54:39;8.50;99.90
17697;DHT22;8967;47.984;7.842;2023-03-21T06:57:12;8.50;99.90
17697;DHT22;8967;47.984;7.842;2023-03-21T06:59:41;8.50;99.90
17697;DHT22;8967;47.984;7.842;2023-03-21T07:02:13;8.60;99.90
17697;DHT22;8967;47.984;7.842;2023-03-21T07:04:56;8.70;99.90
17697;DHT22;8967;47.984;7.842;2023-03-21T07:07:26;8.70;99.90
17697;DHT22;8967;47.984;7.842;2023-03-21T07:09:54;8.90;99.90
17697;DHT22;8967;47.984;7.842;2023-03-21T07:12:23;8.90;99.90
17697;DHT22;8967;47.984;7.842;2023-03-21T07:15:06;8.90;99.90
17697;DHT22;8967;47.984;7.842;2023-03-21T07:17:37;9.00;99.90
17697;DHT22;8967;47.984;7.842;2023-03-21T07:20:05;9.00;99.90
17697;DHT22;8967;47.984;7.842;2023-03-21T07:22:34;9.10;99.90
17697;DHT22;8967;47.984;7.842;2023-03-21T07:25:01;9.10;99.90
17697;DHT22;8967;47.984;7.842;2023-03-21T07:27:29;9.10;99.90
17697;DHT22;8967;47.984;7.842;2023-03-21T07:29:59;9.20;99.90
17697;DHT22;8967;47.984;7.842;2023-03-21T07:32:26;9.20;99.90
17697;DHT22;8967;47.984;7.842;2023-03-21T07:34:54;9.30;99.90
17697;DHT22;8967;47.984;7.842;2023-03-21T07:37:21;9.30;99.90
17697;DHT22;8967;47.984;7.842;2023-03-21T07:39:48;9.40;99.90
17697;DHT22;8967;47.984;7.842;2023-03-21T07:42:19;9.40;99.90
17697;DHT22;8967;47.984;7.842;2023-03-21T07:44:47;9.50;99.90
17697;DHT22;8967;47.984;7.842;2023-03-21T07:47:15;9.50;99.90
17697;DHT22;8967;47.984;7.842;2023-03-21T07:49:45;9.60;99.90
17697;DHT22;8967;47.984;7.842;2023-03-21T07:52:12;9.70;99.90
17697;DHT22;8967;47.984;7.842;2023-03-21T07:54:39;9.70;99.90
17697;DHT22;8967;47.984;7.842;2023-03-21T07:57:06;9.80;99.90
17697;DHT22;8967;47.984;7.842;2023-03-21T07:59:33;9.90;99.90
17697;DHT22;8967;47.984;7.842;2023-03-21T08:02:04;9.90;99.90
17697;DHT22;8967;47.984;7.842;2023-03-21T08:07:01;10.10;99.90
17697;DHT22;8967;47.984;7.842;2023-03-21T08:09:30;10.10;99.90
17697;DHT22;8967;47.984;7.842;2023-03-21T08:11:57;10.20;99.90
17697;DHT22;8967;47.984;7.842;2023-03-21T08:14:24;10.30;99.90
17697;DHT22;8967;47.984;7.842;2023-03-21T08:16:51;10.30;99.90
17697;DHT22;8967;47.984;7.842;2023-03-21T08:19:20;10.40;99.90
17697;DHT22;8967;47.984;7.842;2023-03-21T08:21:47;10.40;99.90
17697;DHT22;8967;47.984;7.842;2023-03-21T08:24:15;10.50;99.90
17697;DHT22;8967;47.984;7.842;2023-03-21T08:26:42;10.60;99.90
17697;DHT22;8967;47.984;7.842;2023-03-21T08:29:10;10.60;99.90
17697;DHT22;8967;47.984;7.842;2023-03-21T08:31:38;10.60;99.80
17697;DHT22;8967;47.984;7.842;2023-03-21T08:34:06;10.70;99.90
17697;DHT22;8967;47.984;7.842;2023-03-21T08:36:34;10.70;99.70
17697;DHT22;8967;47.984;7.842;2023-03-21T08:39:02;10.80;99.80
17697;DHT22;8967;47.984;7.842;2023-03-21T08:41:30;10.80;99.80
17697;DHT22;8967;47.984;7.842;2023-03-21T08:43:57;10.90;99.70
17697;DHT22;8967;47.984;7.842;2023-03-21T08:46:24;10.90;99.60
17697;DHT22;8967;47.984;7.842;2023-03-21T08:48:53;11.00;99.60
17697;DHT22;8967;47.984;7.842;2023-03-21T08:51:20;11.00;99.40
17697;DHT22;8967;47.984;7.842;2023-03-21T08:53:48;11.00;99.30
17697;DHT22;8967;47.984;7.842;2023-03-21T08:56:15;11.00;99.20
17697;DHT22;8967;47.984;7.842;2023-03-21T08:58:42;11.10;99.20
17697;DHT22;8967;47.984;7.842;2023-03-21T09:01:10;11.10;99.00
17697;DHT22;8967;47.984;7.842;2023-03-21T09:03:40;11.20;99.10
17697;DHT22;8967;47.984;7.842;2023-03-21T09:06:08;11.20;99.10
17697;DHT22;8967;47.984;7.842;2023-03-21T09:08:36;11.20;99.00
17697;DHT22;8967;47.984;7.842;2023-03-21T09:11:04;11.30;99.10
17697;DHT22;8967;47.984;7.842;2023-03-21T09:13:31;11.30;99.10
17697;DHT22;8967;47.984;7.842;2023-03-21T09:15:58;11.40;99.00
17697;DHT22;8967;47.984;7.842;2023-03-21T09:18:25;11.40;98.80
17697;DHT22;8967;47.984;7.842;2023-03-21T09:21:08;11.50;98.80
17697;DHT22;8967;47.984;7.842;2023-03-21T09:23:37;11.50;99.10
17697;DHT22;8967;47.984;7.842;2023-03-21T09:26:08;11.60;98.90
17697;DHT22;8967;47.984;7.842;2023-03-21T09:28:36;11.60;98.80
17697;DHT22;8967;47.984;7.842;2023-03-21T09:31:04;11.70;98.70
17697;DHT22;8967;47.984;7.842;2023-03-21T09:33:33;11.70;98.30
17697;DHT22;8967;47.984;7.842;2023-03-21T09:36:00;11.70;98.10
17697;DHT22;8967;47.984;7.842;2023-03-21T09:38:31;11.80;98.00
17697;DHT22;8967;47.984;7.842;2023-03-21T09:41:13;11.80;98.00
17697;DHT22;8967;47.984;7.842;2023-03-21T09:43:51;11.80;97.90
17697;DHT22;8967;47.984;7.842;2023-03-21T09:46:30;11.90;97.60
17697;DHT22;8967;47.984;7.842;2023-03-21T09:49:01;11.90;97.50
17697;DHT22;8967;47.984;7.842;2023-03-21T09:51:35;11.90;97.30
17697;DHT22;8967;47.984;7.842;2023-03-21T09:54:07;12.00;97.20
17697;DHT22;8967;47.984;7.842;2023-03-21T09:56:40;12.00;96.90
17697;DHT22;8967;47.984;7.842;2023-03-21T09:59:18;12.10;96.60
17697;DHT22;8967;47.984;7.842;2023-03-21T10:01:47;12.10;96.50
17697;DHT22;8967;47.984;7.842;2023-03-21T10:04:15;12.10;96.40
17697;DHT22;8967;47.984;7.842;2023-03-21T10:06:54;12.20;96.00
17697;DHT22;8967;47.984;7.842;2023-03-21T10:09:23;12.20;95.80
17697;DHT22;8967;47.984;7.842;2023-03-21T10:11:56;12.30;95.70
17697;DHT22;8967;47.984;7.842;2023-03-21T10:14:26;12.30;95.50
17697;DHT22;8967;47.984;7.842;2023-03-21T10:16:57;12.40;95.60
17697;DHT22;8967;47.984;7.842;2023-03-21T10:19:27;12.40;95.60
17697;DHT22;8967;47.984;7.842;2023-03-21T10:21:54;12.40;95.30
17697;DHT22;8967;47.984;7.842;2023-03-21T10:24:23;12.50;95.20
17697;DHT22;8967;47.984;7.842;2023-03-21T10:26:55;12.50;95.30
17697;DHT22;8967;47.984;7.842;2023-03-21T10:29:25;12.60;95.40
17697;DHT22;8967;47.984;7.842;2023-03-21T10:31:55;12.60;95.40
17697;DHT22;8967;47.984;7.842;2023-03-21T10:34:29;12.60;95.10
17697;DHT22;8967;47.984;7.842;2023-03-21T10:36:57;12.70;95.00
17697;DHT22;8967;47.984;7.842;2023-03-21T10:39:27;12.70;94.80
17697;DHT22;8967;47.984;7.842;2023-03-21T10:41:59;12.80;94.80
17697;DHT22;8967;47.984;7.842;2023-03-21T10:44:29;12.80;94.60
17697;DHT22;8967;47.984;7.842;2023-03-21T10:47:09;12.80;94.40
17697;DHT22;8967;47.984;7.842;2023-03-21T10:49:37;12.80;94.30
17697;DHT22;8967;47.984;7.842;2023-03-21T10:52:07;12.90;94.50
17697;DHT22;8967;47.984;7.842;2023-03-21T10:54:37;12.90;94.20
17697;DHT22;8967;47.984;7.842;2023-03-21T10:57:07;13.00;94.30
17697;DHT22;8967;47.984;7.842;2023-03-21T10:59:39;13.10;94.00
17697;DHT22;8967;47.984;7.842;2023-03-21T11:02:15;13.10;93.90
17697;DHT22;8967;47.984;7.842;2023-03-21T11:04:44;13.10;93.60
17697;DHT22;8967;47.984;7.842;2023-03-21T11:07:13;13.20;93.70
17697;DHT22;8967;47.984;7.842;2023-03-21T11:09:46;13.20;93.50
17697;DHT22;8967;47.984;7.842;2023-03-21T11:12:16;13.20;93.40
17697;DHT22;8967;47.984;7.842;2023-03-21T11:14:45;13.30;93.40
17697;DHT22;8967;47.984;7.842;2023-03-21T11:17:20;13.30;93.30
17697;DHT22;8967;47.984;7.842;2023-03-21T11:19:49;13.30;93.20
17697;DHT22;8967;47.984;7.842;2023-03-21T11:22:17;13.40;93.30
17697;DHT22;8967;47.984;7.842;2023-03-21T11:24:49;13.40;93.60
17697;DHT22;8967;47.984;7.842;2023-03-21T11:27:19;13.50;93.50
17697;DHT22;8967;47.984;7.842;2023-03-21T11:29:48;13.60;93.50
17697;DHT22;8967;47.984;7.842;2023-03-21T11:32:20;13.60;93.60
17697;DHT22;8967;47.984;7.842;2023-03-21T11:34:49;13.70;93.70
17697;DHT22;8967;47.984;7.842;2023-03-21T11:37:20;13.70;93.60
17697;DHT22;8967;47.984;7.842;2023-03-21T11:39:55;13.80;93.60
17697;DHT22;8967;47.984;7.842;2023-03-21T11:42:26;13.90;93.60
17697;DHT22;8967;47.984;7.842;2023-03-21T11:45:00;13.90;93.50
17697;DHT22;8967;47.984;7.842;2023-03-21T11:47:28;13.90;93.40
17697;DHT22;8967;47.984;7.842;2023-03-21T11:49:56;14.00;93.30
17697;DHT22;8967;47.984;7.842;2023-03-21T11:52:31;14.10;93.30
17697;DHT22;8967;47.984;7.842;2023-03-21T11:55:17;14.10;93.40
17697;DHT22;8967;47.984;7.842;2023-03-21T11:57:57;14.20;93.50
17697;DHT22;8967;47.984;7.842;2023-03-21T12:00:31;14.30;93.20
17697;DHT22;8967;47.984;7.842;2023-03-21T12:03:32;14.30;93.20
17697;DHT22;8967;47.984;7.842;2023-03-21T12:06:11;14.40;93.10
17697;DHT22;8967;47.984;7.842;2023-03-21T12:08:44;14.40;93.00
17697;DHT22;8967;47.984;7.842;2023-03-21T12:11:24;14.40;93.10
17697;DHT22;8967;47.984;7.842;2023-03-21T12:14:01;14.50;93.20
17697;DHT22;8967;47.984;7.842;2023-03-21T12:16:43;14.60;93.40
17697;DHT22;8967;47.984;7.842;2023-03-21T12:22:16;14.70;93.10
17697;DHT22;8967;47.984;7.842;2023-03-21T12:24:53;14.70;92.70
17697;DHT22;8967;47.984;7.842;2023-03-21T12:27:31;14.80;92.60
17697;DHT22;8967;47.984;7.842;2023-03-21T12:30:12;14.80;92.40
17697;DHT22;8967;47.984;7.842;2023-03-21T12:32:51;14.80;92.30
17697;DHT22;8967;47.984;7.842;2023-03-21T12:35:29;14.90;92.20
17697;DHT22;8967;47.984;7.842;2023-03-21T12:38:07;14.90;92.10
17697;DHT22;8967;47.984;7.842;2023-03-21T12:40:48;14.90;92.10
17697;DHT22;8967;47.984;7.842;2023-03-21T12:43:28;15.00;92.00
17697;DHT22;8967;47.984;7.842;2023-03-21T12:46:02;15.00;91.80
17697;DHT22;8967;47.984;7.842;2023-03-21T12:48:39;15.00;91.70
17697;DHT22;8967;47.984;7.842;2023-03-21T12:51:12;15.00;91.40
17697;DHT22;8967;47.984;7.842;2023-03-21T12:53:48;15.00;90.90
17697;DHT22;8967;47.984;7.842;2023-03-21T12:56:21;15.00;89.60
17697;DHT22;8967;47.984;7.842;2023-03-21T12:58:53;15.10;87.60
17697;DHT22;8967;47.984;7.842;2023-03-21T13:01:25;15.10;85.90
17697;DHT22;8967;47.984;7.842;2023-03-21T13:04:07;15.20;85.30
17697;DHT22;8967;47.984;7.842;2023-03-21T13:06:36;15.20;84.60
17697;DHT22;8967;47.984;7.842;2023-03-21T13:09:09;15.30;83.50
17697;DHT22;8967;47.984;7.842;2023-03-21T13:11:41;15.30;82.90
17697;DHT22;8967;47.984;7.842;2023-03-21T13:14:13;15.40;83.30
17697;DHT22;8967;47.984;7.842;2023-03-21T13:16:47;15.40;81.70
17697;DHT22;8967;47.984;7.842;2023-03-21T13:19:23;15.50;80.90
17697;DHT22;8967;47.984;7.842;2023-03-21T13:22:01;15.50;80.80
17697;DHT22;8967;47.984;7.842;2023-03-21T13:24:37;15.60;77.10
17697;DHT22;8967;47.984;7.842;2023-03-21T13:27:05;15.70;77.10
17697;DHT22;8967;47.984;7.842;2023-03-21T13:29:41;15.70;77.20
17697;DHT22;8967;47.984;7.842;2023-03-21T13:32:22;15.70;76.80
17697;DHT22;8967;47.984;7.842;2023-03-21T13:34:54;15.70;77.30
17697;DHT22;8967;47.984;7.842;2023-03-21T13:37:22;15.80;75.80
17697;DHT22;8967;47.984;7.842;2023-03-21T13:39:51;15.80;75.10
17697;DHT22;8967;47.984;7.842;2023-03-21T13:42:21;15.80;75.20
17697;DHT22;8967;47.984;7.842;2023-03-21T13:44:51;15.80;75.20
17697;DHT22;8967;47.984;7.842;2023-03-21T13:47:34;15.80;75.10
17697;DHT22;8967;47.984;7.842;2023-03-21T13:50:21;15.90;74.90
17697;DHT22;8967;47.984;7.842;2023-03-21T13:53:10;15.90;74.90
17697;DHT22;8967;47.984;7.842;2023-03-21T13:55:46;15.90;75.30
17697;DHT22;8967;47.984;7.842;2023-03-21T13:58:22;15.90;75.00
17697;DHT22;8967;47.984;7.842;2023-03-21T14:01:09;15.90;74.90
17697;DHT22;8967;47.984;7.842;2023-03-21T14:03:39;16.00;74.30
17697;DHT22;8967;47.984;7.842;2023-03-21T14:06:07;16.00;74.00
17697;DHT22;8967;47.984;7.842;2023-03-21T14:08:38;16.00;73.40
17697;DHT22;8967;47.984;7.842;2023-03-21T14:11:15;16.00;73.20
17697;DHT22;8967;47.984;7.842;2023-03-21T14:13:43;16.00;73.10
17697;DHT22;8967;47.984;7.842;2023-03-21T14:16:13;16.00;73.20
17697;DHT22;8967;47.984;7.842;2023-03-21T14:18:45;16.00;73.40
17697;DHT22;8967;47.984;7.842;2023-03-21T14:21:16;16.10;74.50
17697;DHT22;8967;47.984;7.842;2023-03-21T14:23:43;16.10;74.40
17697;DHT22;8967;47.984;7.842;2023-03-21T14:26:13;16.10;74.50
17697;DHT22;8967;47.984;7.842;2023-03-21T14:28:47;16.10;74.60
17697;DHT22;8967;47.984;7.842;2023-03-21T14:31:18;16.10;75.00
17697;DHT22;8967;47.984;7.842;2023-03-21T14:33:49;16.10;75.30
17697;DHT22;8967;47.984;7.842;2023-03-21T14:36:23;16.10;75.60
17697;DHT22;8967;47.984;7.842;2023-03-21T14:38:56;16.10;76.00
17697;DHT22;8967;47.984;7.842;2023-03-21T14:41:25;16.10;76.40
17697;DHT22;8967;47.984;7.842;2023-03-21T14:44:10;16.00;76.30
17697;DHT22;8967;47.984;7.842;2023-03-21T14:46:37;16.00;76.50
17697;DHT22;8967;47.984;7.842;2023-03-21T14:49:23;16.10;76.50
17697;DHT22;8967;47.984;7.842;2023-03-21T14:51:53;16.10;76.20
17697;DHT22;8967;47.984;7.842;2023-03-21T14:54:22;16.10;76.20
17697;DHT22;8967;47.984;7.842;2023-03-21T14:56:54;16.10;76.10
17697;DHT22;8967;47.984;7.842;2023-03-21T14:59:27;16.10;76.30
17697;DHT22;8967;47.984;7.842;2023-03-21T15:01:58;16.10;76.30
17697;DHT22;8967;47.984;7.842;2023-03-21T15:04:28;16.10;76.30
17697;DHT22;8967;47.984;7.842;2023-03-21T15:06:58;16.10;76.40
17697;DHT22;8967;47.984;7.842;2023-03-21T15:09:28;16.10;76.40
17697;DHT22;8967;47.984;7.842;2023-03-21T15:11:56;16.00;76.40
17697;DHT22;8967;47.984;7.842;2023-03-21T15:14:27;16.10;76.80
17697;DHT22;8967;47.984;7.842;2023-03-21T15:16:55;16.10;76.30
17697;DHT22;8967;47.984;7.842;2023-03-21T15:19:29;16.10;76.10
17697;DHT22;8967;47.984;7.842;2023-03-21T15:22:02;16.00;76.30
17697;DHT22;8967;47.984;7.842;2023-03-21T15:24:33;16.00;76.60
17697;DHT22;8967;47.984;7.842;2023-03-21T15:27:03;16.00;76.70
17697;DHT22;8967;47.984;7.842;2023-03-21T15:29:33;16.00;76.80
17697;DHT22;8967;47.984;7.842;2023-03-21T15:32:04;15.90;77.00
17697;DHT22;8967;47.984;7.842;2023-03-21T15:34:32;15.90;77.20
17697;DHT22;8967;47.984;7.842;2023-03-21T15:37:03;15.90;77.20
17697;DHT22;8967;47.984;7.842;2023-03-21T15:39:31;15.90;77.90
17697;DHT22;8967;47.984;7.842;2023-03-21T15:42:03;15.90;77.30
17697;DHT22;8967;47.984;7.842;2023-03-21T15:44:32;15.90;77.10
17697;DHT22;8967;47.984;7.842;2023-03-21T15:47:00;15.90;77.40
17697;DHT22;8967;47.984;7.842;2023-03-21T15:49:29;15.80;77.20
17697;DHT22;8967;47.984;7.842;2023-03-21T15:52:06;15.80;77.50
17697;DHT22;8967;47.984;7.842;2023-03-21T15:54:42;15.80;77.50
17697;DHT22;8967;47.984;7.842;2023-03-21T15:57:19;15.80;77.50
17697;DHT22;8967;47.984;7.842;2023-03-21T15:59:47;15.80;77.90
17697;DHT22;8967;47.984;7.842;2023-03-21T16:02:18;15.80;77.50
17697;DHT22;8967;47.984;7.842;2023-03-21T16:04:55;15.70;76.90
17697;DHT22;8967;47.984;7.842;2023-03-21T16:07:24;15.70;77.40
17697;DHT22;8967;47.984;7.842;2023-03-21T16:09:58;15.70;76.70
17697;DHT22;8967;47.984;7.842;2023-03-21T16:12:25;15.70;76.50
17697;DHT22;8967;47.984;7.842;2023-03-21T16:14:52;15.70;76.80
17697;DHT22;8967;47.984;7.842;2023-03-21T16:17:27;15.70;76.60
17697;DHT22;8967;47.984;7.842;2023-03-21T16:20:24;15.70;76.40
17697;DHT22;8967;47.984;7.842;2023-03-21T16:22:55;15.70;76.10
17697;DHT22;8967;47.984;7.842;2023-03-21T16:25:22;15.60;76.40
17697;DHT22;8967;47.984;7.842;2023-03-21T16:27:49;15.60;76.60
17697;DHT22;8967;47.984;7.842;2023-03-21T16:30:18;15.60;77.40
17697;DHT22;8967;47.984;7.842;2023-03-21T16:32:45;15.60;76.80
17697;DHT22;8967;47.984;7.842;2023-03-21T16:35:12;15.60;76.70
17697;DHT22;8967;47.984;7.842;2023-03-21T16:37:40;15.60;76.60